Tiempo atmosférico en la estación meteorológica de Alicante/Alacant Aeropuerto, Alacant/Alicante (43 m.)

Fecha
DESCASC
Temp. máxima en grados centígrados (hora)
DESCASC
Temp. mínima en grados centígrados (hora)
DESCASC
Temp. media en grados centígrados
DESCASC
Racha de viento máxima en m/sg (hora)
DESCASC
Velocidad máxima media en intervalos de 10 minutos(hora)
DESCASC
Precipitaciones diarias en mm
DESCASC
Precipitaciones de 00:00 a 06:00 en mm
DESCASC
Precipitaciones de 06:00 a 12:00 en mm
DESCASC
Precipitaciones de 12:00 a 18:00 en mm
DESCASC
Precipitaciones de 18:00 a 24:00 en mm
DESCASC
24-09-2017 28.4 (14:20) 16.5 (07:40) 22.4 8.33 (16:50) 4.72 (16:20) 0 0 0 0 0
23-09-2017 25.7 (17:10) 17.5 (07:40) 21.6 9.17 (12:40) 6.67 (13:10) 0 0 0 0 0
22-09-2017 26.5 (13:40) 19.7 (03:40) 23.1 13.33 (19:30) 10 (19:30) 0 0 0 0 0
21-09-2017 27.1 (12:20) 17.6 (00:00) 22.4 8.89 (17:30) 5.28 (17:30) 0 0 0 0 0
20-09-2017 27.9 (14:00) 18.9 (00:00) 23.4 8.89 (15:20) 4.17 (15:40) 0 0 0 0 0
19-09-2017 27 (15:40) 18 (00:00) 22.5 11.67 (07:40) 6.11 (00:10) 0 0 0 0 0
18-09-2017 31.8 (16:00) 17.5 (00:00) 24.6 11.39 (13:40) 7.78 (13:40) 0 0 0 0 0
17-09-2017 26.4 (15:30) 17.7 (00:00) 22.1 8.33 (15:40) 5.83 (16:20) 0 0 0 0 0
16-09-2017 23.7 (16:00) 18 (00:00) 20.9 9.72 (15:50) 7.22 (17:40) 0 0 0 0 0
15-09-2017 28.1 (14:00) 18.4 (00:00) 23.3 16.94 (19:40) 12.22 (19:40) 17.4 0 0 0 17.4
14-09-2017 33 (15:10) 17.6 (00:00) 25.3 9.72 (15:40) 6.67 (16:40) 0 0 0 0 0
13-09-2017 29 (15:20) 19 (00:00) 24 7.78 (14:40) 4.44 (15:10) 0 0 0 0 0
12-09-2017 28.7 (14:30) 20.2 (00:00) 24.5 12.78 (14:50) 9.17 (14:30) 0 0 0 0 0
11-09-2017 33 (14:20) 19.2 (00:00) 26.1 13.33 (17:20) 8.33 (17:30) 0 0 0 0 0
10-09-2017 29.9 (17:10) 19.2 (00:00) 24.6 16.11 (10:00) 11.11 (10:10) 0 0 0 0 0
09-09-2017 33.8 (15:40) 19.7 (00:00) 26.8 13.33 (21:10) 9.44 (21:10) 0 0 0 0 0
08-09-2017 29.3 (14:10) 21.6 (00:00) 25.4 7.22 (14:30) 4.17 (16:50) 0 0 0 0 0
07-09-2017 28.4 (14:20) 23.1 (00:00) 25.8 7.78 (14:30) 5 (14:50) 0.5 0 0.5 0 0
06-09-2017 28.9 (12:00) 20 (00:00) 24.4 8.33 (14:50) 5.56 (15:50) 0 0 0 0 0
05-09-2017 31.4 (14:50) 21.1 (00:00) 26.3 7.22 (15:40) 4.72 (15:50) 0 0 0 0 0
04-09-2017 29.4 (14:40) 20.1 (00:00) 24.8 8.89 (17:20) 6.67 (18:10) 0 0 0 0 0
03-09-2017 29.2 (15:20) 20.6 (00:00) 24.9 8.33 (12:50) 4.44 (17:50) 0 0 0 0 0
02-09-2017 27.9 (13:20) 21.9 (00:00) 24.9 9.17 (10:40) 6.39 (10:40) 0 0 0 0 0
01-09-2017 28.5 (15:10) 20.7 (00:00) 24.6 13.33 (15:00) 9.72 (14:50) 0.1 0 0 0 0.1
31-08-2017 29.8 (12:00) 21 (00:00) 25.4 11.67 (23:59) 8.61 (23:30) -- 0 -- 0 0
30-08-2017 26.4 (17:40) 19 (00:00) 22.7 9.17 (03:20) 6.39 (13:50) 15.5 12.6 2.3 0.6 0
29-08-2017 27.3 (15:50) 19.7 (00:00) 23.5 13.89 (23:20) 8.06 (23:20) 28.4 0 2.5 3.8 22.1
28-08-2017 28.9 (16:30) 24.2 (00:00) 26.6 7.22 (10:00) 5.28 (10:00) 0 0 0 0 0
27-08-2017 30.7 (15:40) 23 (00:00) 26.9 8.33 (10:00) 5.83 (10:50) 0 0 0 0 0
26-08-2017 29.9 (15:00) 23.9 (00:00) 26.9 9.17 (14:30) 7.22 (23:10) 0 0 0 0 0

Gráficas

Temp. máximas Temp. mínimas Temp. medias Precipitaciones Rachas de viento máximas Velocidades máximas media en intervalos de 10 minutos

Datos horarios

Fecha y hora oficial Temperatura (ºC) Velocidad del viento (km/h) Dirección del viento Racha (km/h) Dirección de racha Precipitación (mm) Presión (hPa) Tendencia (hPa) Humedad (%)
2017-09-24 23:00:00 22.4 5 Norte 11 Norte 0 1016.5 0.6 85
2017-09-24 22:00:00 22.6 6 Nordeste 11 Nordeste 0 1016.6 0.9 84
2017-09-24 21:00:00 22.9 6 Este 15 Sur 0 1016.2 0.5 82
2017-09-24 20:00:00 23.5 6 Sudeste 22 Sur 0 1015.9 0.2 80
2017-09-24 19:00:00 25 15 Sur 24 Sur 0 1015.7 -0.4 72
2017-09-24 18:00:00 26.5 13 Sur 26 Sur 0 1015.7 -0.8 65
2017-09-24 17:00:00 27.3 16 Sur 30 Sur 0 1015.7 -1.2 58
2017-09-24 16:00:00 27.5 16 Sur 26 Sur 0 1016.1 -1.4 58
2017-09-24 15:00:00 28 14 Sur 22 Sur 0 1016.5 -1.3 55
2017-09-24 14:00:00 27.5 11 Sur 22 Sur 0 1016.9 -0.7 54
2017-09-24 13:00:00 26.9 13 Sudoeste 22 Sur 0 1017.5 0.1 50
2017-09-24 12:00:00 25.4 12 Sudoeste 21 Sudoeste 0 1017.8 0.7 51
2017-09-24 11:00:00 23.7 14 Sudoeste 22 Sudoeste 0 1017.6 0.8 64
2017-09-24 10:00:00 21.9 12 Oeste 17 Sudoeste 0 1017.4 0.9 67
2017-09-24 09:00:00 20.3 8 Oeste 18 Oeste 0 1017.1 0.6 72
2017-09-24 08:00:00 16.7 10 Oeste 11 Oeste 0 1016.8 0.1 88
2017-09-24 07:00:00 17.1 8 Sudoeste -- -- 0 1016.5 -0.4 86
2017-09-24 06:00:00 18.1 10 Oeste 13 Oeste 0 1016.5 -1.1 83
2017-09-24 05:00:00 17.7 8 Oeste 11 Oeste 0 1016.7 -1 85
2017-09-24 04:00:00 18.2 8 Noroeste 11 Noroeste 0 1016.9 -0.8 85
2017-09-24 03:00:00 19.3 7 Noroeste 13 Noroeste 0 1017.6 0 83
2017-09-24 02:00:00 18.8 8 Oeste 11 Oeste 0 1017.7 0.5 85
2017-09-24 01:00:00 19.4 9 Oeste 13 Noroeste 0 1017.7 0.9 86
2017-09-24 00:00:00 20.3 10 Noroeste 15 Norte 0 1017.6 1.3 82
2017-09-23 23:00:00 20.8 6 Norte 13 Norte 0 1017.2 1.4 82
2017-09-23 22:00:00 22 4 Nordeste 13 Nordeste 0 1016.8 1.1 78
2017-09-23 21:00:00 22.3 9 Nordeste 17 Este 0 1016.3 0.8 75
2017-09-23 20:00:00 22.9 10 Nordeste 18 Este 0 1015.8 0.2 73
2017-09-23 19:00:00 24.2 13 Este 24 Este 0 1015.7 -0.3 68
2017-09-23 18:00:00 25.1 14 Nordeste 24 Este 0 1015.5 -0.8 60
2017-09-23 17:00:00 25.2 14 Nordeste 26 Este 0 1015.6 -1.3 58
2017-09-23 16:00:00 24.5 18 Este 28 Norte 0 1016 -1 64
2017-09-23 15:00:00 24.8 17 Este 30 Este 0 1016.3 -0.9 59
2017-09-23 14:00:00 24.6 18 Este 32 Este 0 1016.9 -0.4 65
2017-09-23 13:00:00 24.7 22 Este 33 Este 0 1017 0.1 63
2017-09-23 12:00:00 24.5 18 Este 28 Este 0 1017.2 0.6 64
2017-09-23 11:00:00 24.3 14 Nordeste 28 Nordeste 0 1017.3 1.5 60
2017-09-23 10:00:00 23.7 12 Norte 21 Norte 0 1016.9 1.5 61
2017-09-23 09:00:00 19.7 7 Noroeste 11 Noroeste 0 1016.6 1.6 75
2017-09-23 08:00:00 17.6 6 Oeste 11 Oeste 0 1015.8 0.5 82
2017-09-23 07:00:00 18 6 Oeste 17 Noroeste 0 1015.4 -0.3 79
2017-09-23 06:00:00 18.3 12 Noroeste 17 Noroeste 0 1015 -1.2 77
2017-09-23 05:00:00 19.7 12 Noroeste 17 Noroeste 0 1015.3 -1.5 72
2017-09-23 04:00:00 19.9 10 Norte -- -- -- 1015.7 -1.5 72
2017-09-23 03:00:00 21.6 13 Norte 21 Norte 0 1016.2 -0.8 67
2017-09-23 02:00:00 21.7 14 Norte 21 Norte 0 1016.8 0.2 69
2017-09-23 01:00:00 21.7 10 Norte 24 Norte 0 1017.2 1.1 71
2017-09-23 00:00:00 21.9 13 Norte 28 Nordeste 0 1017 1.4 73
2017-09-22 23:00:00 22.7 22 Este 35 Este 0 1016.6 1.4 70
2017-09-22 22:00:00 22.8 27 Este 39 Este 0 1016.1 0.9 71
2017-09-22 21:00:00 23 31 Este 46 Este 0 1015.6 0.5 73
2017-09-22 20:00:00 23.2 34 Este 48 Este 0 1015.2 -0.2 70
2017-09-22 19:00:00 24.2 31 Este 45 Este 0 1015.2 -0.4 67
2017-09-22 18:00:00 25 31 Este 42 Este 0 1015.1 -0.4 66
2017-09-22 17:00:00 24.9 31 Este 42 Este 0 1015.4 -0.2 68
2017-09-22 16:00:00 25.2 28 Nordeste 41 Este 0 1015.6 0.1 67
2017-09-22 15:00:00 26 27 Este 37 Este 0 1015.5 0 61
2017-09-22 14:00:00 25.8 24 Nordeste 39 Este 0 1015.6 0.3 59
2017-09-22 13:00:00 25.8 28 Este 41 Este 0 1015.5 0.3 60
2017-09-22 12:00:00 25.5 28 Este 39 Nordeste 0 1015.5 0.8 59
2017-09-22 11:00:00 25.3 18 Nordeste 30 Nordeste 0 1015.3 1.2 58
2017-09-22 10:00:00 24.1 12 Nordeste 18 Nordeste 0 1015.2 1.4 59
2017-09-22 09:00:00 22.1 10 Norte 21 Norte 0 1014.7 1.2 66
2017-09-22 08:00:00 21.2 12 Norte 24 Norte 0 1014.1 0.5 72
2017-09-22 07:00:00 20.9 12 Norte 24 Norte 0 1013.8 0 75
2017-09-22 06:00:00 21.2 12 Norte 17 Norte 0 1013.5 -0.3 74
2017-09-22 05:00:00 20.4 12 Norte 17 Norte 0 1013.6 -0.2 76
2017-09-22 04:00:00 19.7 10 Norte 13 Norte 0 1013.8 -0.3 81
2017-09-22 03:00:00 20.2 9 Norte 15 Norte 0 1013.8 0 82
2017-09-22 02:00:00 21.2 12 Norte 17 Norte 0 1013.8 0 78
2017-09-22 01:00:00 20.8 12 Norte 21 Norte 0 1014.1 0.8 79
2017-09-22 00:00:00 21.5 12 Norte 17 Norte 0 1013.8 1 78
2017-09-21 23:00:00 22 10 Nordeste 22 Este 0 1013.8 1.2 76
2017-09-21 22:00:00 22.3 13 Este 21 Este 0 1013.3 0.8 75
2017-09-21 21:00:00 22.7 14 Nordeste 22 Este 0 1012.8 0.4 74
2017-09-21 20:00:00 23.5 15 Nordeste 24 Este 0 1012.6 0.2 71
2017-09-21 19:00:00 24.5 16 Este 30 Este 0 1012.5 -0.2 68
2017-09-21 18:00:00 25.5 17 Este 32 Norte 0 1012.4 -0.8 63
2017-09-21 17:00:00 26.1 18 Este 28 Este 0 1012.4 -1.2 59
2017-09-21 16:00:00 26.4 17 Este 26 Este 0 1012.7 -1.2 57
2017-09-21 15:00:00 26.3 16 Este 28 Este 0 1013.2 -1.2 54
2017-09-21 14:00:00 26.7 16 Este 24 Este 0 1013.6 -1.1 47
2017-09-21 13:00:00 26.2 11 Este 21 Este 0 1013.9 -0.7 51
2017-09-21 12:00:00 25.9 8 Este 21 Este 0 1014.4 0.1 52
2017-09-21 11:00:00 23.9 7 Norte 13 Nordeste 0 1014.7 0.8 69
2017-09-21 10:00:00 22.7 3 Nordeste 13 Norte 0 1014.6 1 71
2017-09-21 09:00:00 19.6 6 Noroeste 15 Norte 0 1014.3 0.8 84
2017-09-21 08:00:00 17.7 8 Noroeste 11 Noroeste 0 1013.9 0.2 89
2017-09-21 07:00:00 17.7 0 Calma 8 Noroeste 0 1013.6 -0.4 91
2017-09-21 06:00:00 17.8 5 Noroeste 5 Noroeste 0 1013.5 -1.2 91
2017-09-21 05:00:00 18.4 7 Oeste 9 Noroeste 0 1013.7 -1.1 88
2017-09-21 04:00:00 19 5 Noroeste 8 Noroeste 0 1014 -0.7 86
2017-09-21 03:00:00 19.2 5 Noroeste 9 Noroeste 0 1014.7 -0.2 85
2017-09-21 02:00:00 19.2 4 Noroeste 9 Norte 0 1014.8 -0.2 87
2017-09-21 01:00:00 20.2 6 Noroeste 9 Norte 0 1014.7 -0.2 84
2017-09-21 00:00:00 20.3 6 Noroeste 11 Norte 0 1014.9 0.2 83
2017-09-20 23:00:00 22 4 Noroeste 9 Noroeste 0 1015 0.3 77
2017-09-20 22:00:00 22.6 0 Calma -- -- 0 1014.9 0.3 74
2017-09-20 21:00:00 22.4 0 Calma 8 Sur 0 1014.7 0.2 75
2017-09-20 20:00:00 23.7 5 Sur 17 Sur 0 1014.7 -0.2 68
2017-09-20 19:00:00 25 10 Sur 22 Sudeste 0 1014.6 -0.8 61
2017-09-20 18:00:00 25.6 12 Sur 26 Sur 0 1014.5 -1.3 60
2017-09-20 17:00:00 26.3 14 Sudeste 24 Sudeste 0 1014.9 -1.3 59
2017-09-20 16:00:00 26.8 12 Sur 32 Sudeste 0 1015.4 -1.4 55
2017-09-20 15:00:00 26.9 14 Sur 26 Sur 0 1015.8 -1.4 58
2017-09-20 14:00:00 27.6 13 Sur 26 Sudeste 0 1016.2 -1.1 53
2017-09-20 13:00:00 26.2 11 Sudeste 24 Este 0 1016.8 -0.4 58
2017-09-20 12:00:00 26 9 Este 17 Este 0 1017.2 0.1 61
2017-09-20 11:00:00 23.6 4 Norte 11 Norte 0 1017.3 0.4 72
2017-09-20 10:00:00 23.8 8 Norte 13 Norte 0 1017.2 0.6 73
2017-09-20 09:00:00 20.8 3 Noroeste 11 Norte 0 1017.1 0.5 86
2017-09-20 08:00:00 19.2 5 Oeste 11 Norte 0 1016.9 0.3 89
2017-09-20 07:00:00 19 8 Norte 13 Norte 0 1016.6 -0.1 89
2017-09-20 06:00:00 19.1 0 Calma 11 Norte 0 1016.6 -0.2 88
2017-09-20 05:00:00 20.6 9 Norte 11 Norte 0 1016.6 -0.3 83
2017-09-20 04:00:00 20.4 0 Calma -- -- 0 1016.7 -0.4 85
2017-09-20 03:00:00 20.2 0 Calma 9 Norte 0 1016.8 -0.4 83
2017-09-20 02:00:00 21 7 Norte 11 Norte 0 1016.9 -0.3 81
2017-09-20 01:00:00 20.2 6 Norte 17 Norte 0 1017.1 0.2 84
2017-09-20 00:00:00 21 10 Norte 15 Nordeste 0 1017.2 0.6 81
2017-09-19 23:00:00 21.7 6 Norte 11 Norte 0 1017.2 1.1 77
2017-09-19 22:00:00 22.2 0 Calma -- -- 0 1016.9 1.1 76
2017-09-19 21:00:00 22.2 0 Calma 8 Sur 0 1016.6 1 75
2017-09-19 20:00:00 23.2 4 Sudeste 17 Este 0 1016.1 0.5 69
2017-09-19 19:00:00 24.3 12 Este 21 Este 0 1015.8 0 63
2017-09-19 18:00:00 24.7 13 Este 30 Este 0 1015.6 -0.8 64
2017-09-19 17:00:00 25.2 17 Este 28 Este 0 1015.6 -1.4 62
2017-09-19 16:00:00 26.1 18 Este 30 Este 0 1015.8 -1.7 59
2017-09-19 15:00:00 25.7 18 Este 26 Sudeste 0 1016.4 -1.5 58
2017-09-19 14:00:00 25.6 16 Este 30 Este 0 1017 -0.7 60
2017-09-19 13:00:00 26.1 12 Este 21 Este 0 1017.5 0.1 56
2017-09-19 12:00:00 25.7 12 Este 22 Este 0 1017.9 0.9 57
2017-09-19 11:00:00 24.9 5 Nordeste 18 Este 0 1017.7 1 57
2017-09-19 10:00:00 23.2 5 Norte 15 Noroeste 0 1017.4 1.1 61
2017-09-19 09:00:00 20.2 10 Noroeste 21 Norte 0 1017 0.9 73
2017-09-19 08:00:00 18.4 13 Noroeste 42 Noroeste 0 1016.7 0.7 81
2017-09-19 07:00:00 18.1 9 Noroeste 17 Noroeste 0 1016.3 0.2 83
2017-09-19 06:00:00 19 14 Noroeste 17 Noroeste 0 1016.1 0 77
2017-09-19 05:00:00 19.2 7 Noroeste 13 Norte 0 1016 -0.2 80
2017-09-19 04:00:00 19.6 10 Norte 17 Norte 0 1016.1 0.2 82
2017-09-19 03:00:00 21.3 10 Norte 17 Nordeste 0 1016.1 0.4 77
2017-09-19 02:00:00 21.2 10 Nordeste 24 Nordeste 0 1016.2 1.1 79
2017-09-19 01:00:00 22 10 Nordeste 32 Nordeste 0 1015.9 1.7 79
2017-09-19 00:00:00 22.6 23 Nordeste 35 Nordeste 0 1015.7 2.7 81
2017-09-18 23:00:00 23.1 14 Nordeste 26 Nordeste 0 1015.1 3.4 80
2017-09-18 22:00:00 23.1 13 Nordeste 22 Nordeste 0 1014.2 3.1 74
2017-09-18 21:00:00 24.9 11 Nordeste 24 Norte 0 1013 2.3 63
2017-09-18 20:00:00 25.5 12 Sudoeste 32 Sur 0 1011.7 1.1 63
2017-09-18 19:00:00 27.1 16 Sur 33 Sur 0 1011.1 0.2 49
2017-09-18 18:00:00 28.2 19 Sur 35 Sur 0 1010.7 -0.9 44
2017-09-18 17:00:00 29 22 Sur 35 Sur 0 1010.6 -1.4 40
2017-09-18 16:00:00 31.6 13 Sudoeste 35 Oeste 0 1010.9 -1.5 17
2017-09-18 15:00:00 30.9 17 Oeste 39 Oeste 0 1011.6 -1.2 15
2017-09-18 14:00:00 30.4 22 Oeste 41 Noroeste 0 1012 -0.9 18
2017-09-18 13:00:00 29.2 19 Oeste 35 Norte 0 1012.4 -0.4 23
2017-09-18 12:00:00 28 17 Oeste 26 Noroeste 0 1012.8 0.2 26
2017-09-18 11:00:00 24.5 13 Sudoeste 22 Sudoeste 0 1012.9 0.4 61
2017-09-18 10:00:00 22.4 16 Sudoeste 22 Sudoeste 0 1012.8 0.7 74
2017-09-18 09:00:00 19.5 13 Sudoeste 17 Oeste 0 1012.6 0.5 85
2017-09-18 08:00:00 18 12 Sudoeste 17 Sudoeste 0 1012.5 0.3 92
2017-09-18 07:00:00 18.2 12 Sudoeste 15 Oeste 0 1012.1 -0.4 91
2017-09-18 06:00:00 18.6 9 Oeste 13 Oeste 0 1012.1 -1 91
2017-09-18 05:00:00 18.6 3 Oeste 11 Noroeste 0 1012.2 -0.9 92
2017-09-18 04:00:00 19.1 0 Calma 8 Oeste 0 1012.5 -1 92
2017-09-18 03:00:00 20.4 0 Calma -- -- 0 1013.1 -0.7 87
2017-09-18 02:00:00 20.7 0 Calma 5 Norte 0 1013.1 -0.8 87
2017-09-18 01:00:00 21.2 0 Calma 8 Norte 0 1013.5 -0.3 84
2017-09-18 00:00:00 22.1 4 Norte 11 Noroeste 0 1013.8 0.4 81
2017-09-17 23:00:00 22.6 0 Calma 9 Norte 0 1013.9 1.1 79
2017-09-17 22:00:00 22.9 0 Calma -- -- 0 1013.8 0.9 78
2017-09-17 21:00:00 22.6 0 Calma 8 Sudeste 0 1013.4 0.7 78
2017-09-17 20:00:00 23.2 6 Sudeste 21 Este 0 1012.8 -0.1 73
2017-09-17 19:00:00 24.6 14 Sudeste 24 Este 0 1012.9 -0.3 67
2017-09-17 18:00:00 25.7 15 Este 28 Este 0 1012.7 -1.2 63
2017-09-17 17:00:00 25.9 17 Sudeste 30 Este 0 1012.9 -1.9 60
2017-09-17 16:00:00 26.3 20 Este 30 Este 0 1013.2 -2 57
2017-09-17 15:00:00 24.7 17 Este 26 Este 0 1013.9 -1.7 63
2017-09-17 14:00:00 24.6 15 Este 26 Este 0 1014.8 -0.9 61
2017-09-17 13:00:00 25.2 9 Este 22 Norte 0 1015.2 -0.1 56
2017-09-17 12:00:00 24.1 4 Sudeste 13 Noroeste 0 1015.6 0.8 60
2017-09-17 11:00:00 22.8 5 Norte 13 Noroeste 0 1015.7 1.3 65
2017-09-17 10:00:00 21.7 7 Norte 17 Norte 0 1015.3 1.3 65
2017-09-17 09:00:00 19.3 4 Norte 11 Norte 0 1014.8 1.2 76
2017-09-17 08:00:00 18.8 8 Noroeste 11 Norte 0 1014.4 1.1 82
2017-09-17 07:00:00 18.6 4 Noroeste 9 Noroeste 0 1014 0.8 83
2017-09-17 06:00:00 18.3 3 Noroeste 11 Noroeste 0 1013.6 0 82
2017-09-17 05:00:00 18.2 7 Noroeste 11 Noroeste 0 1013.3 -0.3 80
2017-09-17 04:00:00 18.4 9 Noroeste 15 Noroeste 0 1013.2 -0.5 79
2017-09-17 03:00:00 19 6 Noroeste 13 Nordeste 0 1013.6 -0.1 78
2017-09-17 02:00:00 18 6 Noroeste 13 Norte 0 1013.6 0.3 80
2017-09-17 01:00:00 18.7 5 Noroeste 15 Norte 0 1013.7 0.9 78
2017-09-17 00:00:00 19.2 7 Noroeste 15 Norte 0 1013.7 1.8 76
2017-09-16 23:00:00 19.8 8 Norte 15 Norte 0 1013.3 2.2 75
2017-09-16 22:00:00 20.4 7 Norte 15 Norte 0 1012.8 2.2 70
2017-09-16 21:00:00 20.4 6 Este 17 Este 0 1011.9 1.9 69
2017-09-16 20:00:00 20.7 14 Este 30 Este 0 1011.1 1.7 67
2017-09-16 19:00:00 21.2 22 Este 35 Este 0 1010.6 1 66
2017-09-16 18:00:00 21.5 24 Este 35 Este 0 1010 0.4 64
2017-09-16 17:00:00 23.2 23 Este 35 Sudeste 0 1009.4 -0.5 56
2017-09-16 16:00:00 23.2 22 Este 35 Este 0 1009.6 -0.6 58
2017-09-16 15:00:00 23.3 17 Este 32 Este 0 1009.6 -0.9 59
2017-09-16 14:00:00 23.1 18 Este 30 Norte 0 1009.9 -0.7 59
2017-09-16 13:00:00 22.6 8 Sudeste 26 Este 0 1010.2 0.2 59
2017-09-16 12:00:00 21.6 14 Este 22 Sudeste 0 1010.5 0.9 62
2017-09-16 11:00:00 21.6 0 Calma 13 Norte 0 1010.6 1.6 59
2017-09-16 10:00:00 20.4 8 Noroeste 18 Oeste 0 1010 1.4 65
2017-09-16 09:00:00 18.2 10 Noroeste 17 Noroeste 0 1009.6 1.1 75
2017-09-16 08:00:00 18.2 7 Oeste 15 Noroeste 0 1009 0.7 74
2017-09-16 07:00:00 18.2 8 Oeste 13 Noroeste 0 1008.6 -0.1 72
2017-09-16 06:00:00 18.5 4 Oeste 11 Oeste 0 1008.5 -0.3 75
2017-09-16 05:00:00 18.6 8 Oeste 11 Oeste 0 1008.3 -0.4 77
2017-09-16 04:00:00 18.6 6 Noroeste 11 Noroeste 0 1008.7 -0.2 78
2017-09-16 03:00:00 18.7 8 Norte 21 Norte 0 1008.8 -0.1 80
2017-09-16 02:00:00 19.1 14 Norte 24 Norte 0 1008.7 0 74
2017-09-16 01:00:00 19 15 Norte 30 Norte 0 1008.9 0.3 76
2017-09-16 00:00:00 18.7 20 Norte 32 Norte 0 1008.9 1.4 79
2017-09-15 23:00:00 18.5 18 Nordeste 35 Norte 0.3 1008.7 1.3 87
2017-09-15 22:00:00 18.8 20 Norte 33 Norte 4.7 1008.6 2.7 88
2017-09-15 21:00:00 19.7 25 Este 42 Este 0.2 1007.5 2.5 91
2017-09-15 20:00:00 20.8 26 Norte 61 Este 12.2 1007.4 2 84
2017-09-15 19:00:00 23.2 39 Este 55 Este 0 1005.9 0.3 75
2017-09-15 18:00:00 23.9 41 Este 52 Este 0 1005 -1.2 74
2017-09-15 17:00:00 26.5 35 Nordeste 46 Este 0 1005.4 -1.2 65
2017-09-15 16:00:00 27.4 31 Este 41 Este 0 1005.6 -1.5 59
2017-09-15 15:00:00 27.1 28 Este 39 Este 0 1006.2 -1.7 60
2017-09-15 14:00:00 27.8 21 Este 32 Sudeste 0 1006.6 -1.5 57
2017-09-15 13:00:00 27.6 16 Este 24 Este 0 1007.1 -0.7 61
2017-09-15 12:00:00 26.3 11 Nordeste 24 Este 0 1007.9 0.3 64
2017-09-15 11:00:00 26 11 Este 18 Este 0 1008.1 0.6 64
2017-09-15 10:00:00 24.5 10 Norte 17 Norte 0 1007.8 0.1 72
2017-09-15 09:00:00 24.6 9 Norte 17 Norte 0 1007.6 -0.1 74
2017-09-15 08:00:00 23.3 10 Nordeste 26 Este 0 1007.5 -0.6 84
2017-09-15 07:00:00 23 12 Nordeste 30 Nordeste 0 1007.7 -1.1 86
2017-09-15 06:00:00 23.7 19 Nordeste 28 Este 0 1007.7 -0.9 86
2017-09-15 05:00:00 24 19 Este 28 Este 0 1008.1 -1 82
2017-09-15 04:00:00 24.2 15 Este 32 Nordeste 0 1008.8 -0.3 82
2017-09-15 03:00:00 24.2 22 Este 30 Este 0 1008.6 -1 84
2017-09-15 02:00:00 24.2 19 Este 30 Este 0 1009.1 -0.5 85
2017-09-15 01:00:00 23.9 15 Nordeste 26 Nordeste 0 1009.1 -0.5 87
2017-09-15 00:00:00 24.1 10 Norte 18 Nordeste 0 1009.6 0.4 84
2017-09-14 23:00:00 24.7 10 Norte 21 Nordeste 0 1009.6 0.8 81
2017-09-14 22:00:00 25.3 14 Nordeste 24 Nordeste 0 1009.6 1.2 74
2017-09-14 21:00:00 26.2 16 Nordeste 24 Nordeste 0 1009.2 0.6 70
2017-09-14 20:00:00 29.2 4 Este 17 Sur 0 1008.8 0 48
2017-09-14 19:00:00 30.7 11 Sur 28 Sur 0 1008.4 -1.2 44
2017-09-14 18:00:00 32 17 Sur 33 Sur 0 1008.6 -1.8 38
2017-09-14 17:00:00 32.1 24 Sur 35 Sur 0 1008.8 -2.5 46
2017-09-14 16:00:00 32 23 Sur 35 Sur 0 1009.6 -2.7 43
2017-09-14 15:00:00 32.7 19 Sur 30 Sur 0 1010.4 -2.6 41
2017-09-14 14:00:00 32 17 Sudoeste 30 Sur 0 1011.3 -2.2 40
2017-09-14 13:00:00 30 19 Sudoeste 32 Sudoeste 0 1012.3 -1.4 38
2017-09-14 12:00:00 28.4 21 Sudoeste 30 Sudoeste 0 1013 -0.4 44
2017-09-14 11:00:00 25.1 17 Sudoeste 30 Sudoeste 0 1013.5 -0.2 59
2017-09-14 10:00:00 23.6 22 Sudoeste 32 Sudoeste 0 1013.7 -0.1 63
2017-09-14 09:00:00 20.6 13 Sudoeste 17 Sudoeste 0 1013.4 -0.7 68
2017-09-14 08:00:00 17.7 9 Sudoeste 13 Sudoeste 0 1013.7 -0.6 77
2017-09-14 07:00:00 18 7 Sudoeste 11 Oeste 0 1013.8 -1 76
2017-09-14 06:00:00 18.2 10 Sudoeste 13 Oeste 0 1014.1 -1.2 82
2017-09-14 05:00:00 18.6 11 Oeste 15 Oeste 0 1014.3 -1.6 81
2017-09-14 04:00:00 19.5 13 Oeste 15 Oeste 0 1014.8 -1.5 81
2017-09-14 03:00:00 20 6 Oeste 9 Oeste 0 1015.3 -1.5 87
2017-09-14 02:00:00 20.5 8 Oeste 13 Oeste 0 1015.9 -1.4 85
2017-09-14 01:00:00 21.3 8 Oeste 9 Oeste 0 1016.3 -1.1 85
2017-09-14 00:00:00 22 5 Oeste 9 Noroeste 0 1016.8 -0.4 84
2017-09-13 23:00:00 22.7 0 Calma 9 Norte 0 1017.3 0.3 83
2017-09-13 22:00:00 23.4 5 Norte 13 Norte 0 1017.4 0.1 81
2017-09-13 21:00:00 24 0 Calma 11 Este 0 1017.2 -0.4 80
2017-09-13 20:00:00 24.7 8 Este 17 Norte 0 1017 -1.1 75
2017-09-13 19:00:00 26 11 Este 18 Sudeste 0 1017.3 -1.3 69
2017-09-13 18:00:00 26.8 12 Este 24 Este 0 1017.6 -1.7 62
2017-09-13 17:00:00 27.6 15 Este 28 Este 0 1018.1 -1.5 57
2017-09-13 16:00:00 28.1 15 Este 26 Norte 0 1018.6 -1.4 53
2017-09-13 15:00:00 28.1 14 Este 28 Este 0 1019.3 -1 53
2017-09-13 14:00:00 28 15 Este 24 Norte 0 1019.6 -0.5 52
2017-09-13 13:00:00 27.6 11 Este 22 Este 0 1020 0.3 45
2017-09-13 12:00:00 27.6 12 Nordeste 21 Este 0 1020.3 1.2 40
2017-09-13 11:00:00 26.3 9 Este 17 Este 0 1020.1 1.4 50
2017-09-13 10:00:00 25.7 6 Nordeste 13 Nordeste 0 1019.7 1.6 41
2017-09-13 09:00:00 22.1 2 Sudoeste 9 Norte 0 1019.1 1.5 50
2017-09-13 08:00:00 19 3 Oeste 8 Oeste 0 1018.7 1 61
2017-09-13 07:00:00 20 2 Oeste 13 Noroeste 0 1018.1 0.3 57
2017-09-13 06:00:00 19.7 6 Oeste 15 Noroeste 0 1017.6 -0.4 65
2017-09-13 05:00:00 20.6 8 Oeste 17 Norte 0 1017.7 -0.3 67
2017-09-13 04:00:00 19.9 13 Noroeste 17 Noroeste 0 1017.8 -0.1 70
2017-09-13 03:00:00 20.5 10 Noroeste 13 Noroeste 0 1018 0.4 72
2017-09-13 02:00:00 20.6 10 Norte 15 Norte 0 1018 0.8 72
2017-09-13 01:00:00 21.4 9 Norte 15 Norte 0 1017.9 1.4 68
2017-09-13 00:00:00 22.7 8 Norte 17 Este 0 1017.6 2 65
2017-09-12 23:00:00 22.7 9 Nordeste 18 Este 0 1017.2 2.5 65
2017-09-12 22:00:00 23 13 Nordeste 21 Nordeste 0 1016.5 2.5 64
2017-09-12 21:00:00 23.7 15 Este 24 Este 0 1015.6 2 61
2017-09-12 20:00:00 24.6 19 Este 28 Este 0 1014.7 1.7 60
2017-09-12 19:00:00 25.3 21 Nordeste 32 Este 0 1014 1.5 60
2017-09-12 18:00:00 26.6 22 Este 33 Este 0 1013.6 1.1 55
2017-09-12 17:00:00 26.8 26 Este 41 Este 0 1013 0.7 54
2017-09-12 16:00:00 27.1 30 Nordeste 46 Este 0 1012.5 0.3 57
2017-09-12 15:00:00 27.7 31 Este 46 Este 0 1012.5 0.4 52
2017-09-12 14:00:00 27.6 31 Este 41 Este 0 1012.3 0.9 54
2017-09-12 13:00:00 27.7 28 Este 35 Este 0 1012.2 1.6 57
2017-09-12 12:00:00 27.4 23 Este 30 Este 0 1012.1 2.1 58
2017-09-12 11:00:00 26.9 21 Este 32 Este 0 1011.4 2.2 64
2017-09-12 10:00:00 26.9 16 Este 22 Este 0 1010.6 2.6 65
2017-09-12 09:00:00 25.3 8 Este 21 Norte 0 1010 2.6 68
2017-09-12 08:00:00 24.1 11 Norte 22 Noroeste 0 1009.2 2 53
2017-09-12 07:00:00 24.6 4 Este 22 Noroeste 0 1008 0.5 33
2017-09-12 06:00:00 24.6 11 Sudoeste 15 Sudoeste 0 1007.4 -0.2 32
2017-09-12 05:00:00 25.2 10 Oeste 15 Oeste 0 1007.2 -0.6 32
2017-09-12 04:00:00 21.2 14 Sudoeste 21 Sudoeste 0 1007.5 -0.2 49
2017-09-12 03:00:00 20.8 12 Oeste 15 Oeste 0 1007.6 -0.4 53
2017-09-12 02:00:00 21.3 10 Oeste 13 Oeste 0 1007.8 -0.2 52
2017-09-12 01:00:00 22.2 6 Sudoeste 11 Norte 0 1007.7 -0.1 55
2017-09-12 00:00:00 23.1 3 Oeste 9 Norte 0 1008 1 52
2017-09-11 23:00:00 24.4 5 Noroeste 8 Norte 0 1008 1.5 40
2017-09-11 22:00:00 25.8 0 Calma 11 Sudoeste 0 1007.8 1.4 34
2017-09-11 21:00:00 27.5 8 Sudoeste 22 Sur 0 1007 0.6 29
2017-09-11 20:00:00 29.3 18 Sur 32 Sur 0 1006.5 -0.2 29
2017-09-11 19:00:00 29.7 27 Sur 41 Sur 0 1006.4 -1.2 39
2017-09-11 18:00:00 30.8 26 Sur 48 Sur 0 1006.4 -2.1 32
2017-09-11 17:00:00 31.9 27 Sur 42 Sur 0 1006.7 -2.4 26
2017-09-11 16:00:00 31.8 24 Sur 41 Sur 0 1007.6 -1.9 26
2017-09-11 15:00:00 32.3 20 Sur 32 Sur 0 1008.5 -1.4 22
2017-09-11 14:00:00 32.5 15 Sur 30 Sudoeste 0 1009.1 -0.6 20
2017-09-11 13:00:00 31.2 15 Sudoeste 26 Sudoeste 0 1009.5 0.2 21
2017-09-11 12:00:00 29.5 15 Sudoeste 28 Oeste 0 1009.9 0.7 24
2017-09-11 11:00:00 28.1 22 Oeste 28 Oeste 0 1009.7 0.7 23
2017-09-11 10:00:00 26.4 16 Oeste 28 Oeste 0 1009.3 0.9 24
2017-09-11 09:00:00 24.6 16 Oeste 26 Oeste 0 1009.2 0.9 25
2017-09-11 08:00:00 21.9 15 Oeste 33 Oeste 0 1009 0.5 30
2017-09-11 07:00:00 22.6 14 Sudoeste 37 Noroeste 0 1008.4 -0.3 29
2017-09-11 06:00:00 21.9 24 Oeste 39 Oeste 0 1008.3 -1.3 31
2017-09-11 05:00:00 19.6 13 Sudoeste 22 Sudoeste 0 1008.5 -1.3 48
2017-09-11 04:00:00 21.6 13 Noroeste 21 Noroeste 0 1008.7 -1.2 36
2017-09-11 03:00:00 20.2 14 Oeste 21 Sudoeste 0 1009.6 -0.5 56
2017-09-11 02:00:00 20.1 14 Oeste 21 Oeste 0 1009.8 -0.1 58
2017-09-11 01:00:00 20 12 Oeste 17 Sudoeste 0 1009.9 0.4 59
2017-09-11 00:00:00 20.9 9 Oeste 15 Noroeste 0 1010.1 1.4 54
2017-09-10 23:00:00 22 10 Noroeste 22 Norte 0 1009.9 1.8 50
2017-09-10 22:00:00 23 16 Norte 24 Norte 0 1009.5 2 54
2017-09-10 21:00:00 23.9 12 Nordeste 21 Norte 0 1008.7 1.7 59
2017-09-10 20:00:00 26 12 Nordeste 21 Norte 0 1008.1 1.2 39
2017-09-10 19:00:00 27.3 14 Este 30 Sudeste 0 1007.5 0.2 33
2017-09-10 18:00:00 27 19 Sudeste 41 Este 0 1007 -0.7 34
2017-09-10 17:00:00 29.4 23 Noroeste 41 Noroeste 0 1006.9 -0.9 17
2017-09-10 16:00:00 28.4 19 Noroeste 37 Noroeste 0 1007.3 -0.6 18
2017-09-10 15:00:00 27.7 26 Noroeste 45 Oeste 0 1007.7 -0.4 21
2017-09-10 14:00:00 26.9 24 Oeste 37 Oeste 0 1007.8 0.2 23
2017-09-10 13:00:00 25.9 21 Oeste 37 Noroeste 0 1007.9 1.2 25
2017-09-10 12:00:00 24.6 22 Noroeste 45 Noroeste 0 1008.1 1.1 27
2017-09-10 11:00:00 22.5 29 Oeste 58 Noroeste 0 1007.6 -- 33
2017-09-10 10:00:00 21.5 39 Noroeste 58 Noroeste 0 1006.7 1.5 36
2017-09-10 09:00:00 20.7 26 Noroeste 37 Noroeste 0 1007 2.4 35
2017-09-10 08:00:00 19.3 20 Oeste 37 Noroeste 0 -- -- 46
2017-09-10 07:00:00 19.9 26 Noroeste 35 Noroeste 0 1005.2 1 48
2017-09-10 06:00:00 20.7 23 Oeste 32 Oeste 0 1004.6 1.1 65
2017-09-10 05:00:00 21.1 16 Oeste 24 Oeste 0 1004.2 1.1 67
2017-09-10 04:00:00 21.3 9 Noroeste 17 Nordeste 0 1004.2 1.4 69
2017-09-10 03:00:00 22.6 10 Nordeste -- -- -- 1003.5 1.2 64
2017-09-10 02:00:00 23 17 Nordeste 35 Nordeste 0 1003.1 0.5 64
2017-09-10 01:00:00 23.7 21 Este 30 Este 0 1002.8 0.7 66
2017-09-10 00:00:00 23.8 9 Oeste 26 Noroeste 0 1002.3 1.4 46
2017-09-09 23:00:00 24.7 7 Norte 21 Norte 0 1002.6 2.4 53
2017-09-09 22:00:00 24.3 18 Nordeste 48 Este 0 1002.1 3 68
2017-09-09 21:00:00 25.4 31 Este 46 Este 0 1000.9 1.6 64
2017-09-09 20:00:00 28.6 16 Este 30 Este 0 1000.2 0.6 29
2017-09-09 19:00:00 29.3 3 Sudoeste 22 Oeste 0 999.1 -1 22
2017-09-09 18:00:00 31 17 Oeste 32 Noroeste 0 999.3 -1.3 16
2017-09-09 17:00:00 30.8 22 Noroeste 37 Oeste 0 999.6 -- 14
2017-09-09 16:00:00 32.5 29 Oeste 41 Oeste 0 1000.1 -1.6 12
2017-09-09 15:00:00 33.1 28 Oeste 41 Oeste 0 1000.6 -1.9 12
2017-09-09 14:00:00 28.9 11 Sudoeste 24 Oeste 0 -- -- 45
2017-09-09 13:00:00 26.7 15 Sudoeste 24 Sudoeste 0 1001.7 -1.5 61
2017-09-09 12:00:00 25.8 14 Sudoeste 24 Sudoeste 0 1002.5 -0.9 62
2017-09-09 11:00:00 24.9 16 Sudoeste 24 Sudoeste 0 1003 -0.4 69
2017-09-09 10:00:00 23.2 13 Sudoeste 22 Sudoeste 0 1003.2 -0.4 81
2017-09-09 09:00:00 21.3 13 Oeste 21 Oeste 0 1003.4 -0.8 94
2017-09-09 08:00:00 19.7 11 Oeste 15 Sudoeste 0 1003.4 -1.3 93
2017-09-09 07:00:00 20.2 11 Oeste 15 Oeste 0 1003.6 -1.6 93
2017-09-09 06:00:00 20.1 9 Oeste 13 Oeste 0 1004.2 -1.6 94
2017-09-09 05:00:00 20.5 8 Sudoeste 9 Sudoeste 0 1004.7 -2.2 93
2017-09-09 04:00:00 21.5 0 Calma 9 Oeste 0 1005.2 -2.6 91
2017-09-09 03:00:00 22.3 5 Oeste 8 Oeste 0 1005.8 -2 91
2017-09-09 02:00:00 22.9 5 Sudoeste 8 Sudoeste 0 1006.9 -1.1 89
2017-09-09 01:00:00 24 8 Oeste 13 Oeste 0 1007.8 -0.2 85
2017-09-09 00:00:00 24.1 3 Noroeste 8 Noroeste 0 1007.8 -0.2 84
2017-09-08 23:00:00 24.1 0 Calma -- -- 0 1008 0 83
2017-09-08 22:00:00 24.2 2 Oeste 8 Sur 0 1008 -0.4 83
2017-09-08 21:00:00 24.6 5 Sur 13 Sur 0 1008 -0.7 81
2017-09-08 20:00:00 25.3 8 Sur 18 Sur 0 1008 -1.1 76
2017-09-08 19:00:00 26.6 12 Sur 22 Sur 0 1008.4 -1.2 69
2017-09-08 18:00:00 27.4 13 Sur 24 Sudeste 0 1008.7 -1.5 64
2017-09-08 17:00:00 28.1 14 Sur 26 Sur 0 1009.1 -1.7 61
2017-09-08 16:00:00 28.6 15 Sur 26 Sur 0 1009.6 -1.8 60
2017-09-08 15:00:00 28.6 14 Sur 26 Sur 0 1010.2 -1.8 63
2017-09-08 14:00:00 28.9 13 Sur 22 Sur 0 1010.8 -1.3 61
2017-09-08 13:00:00 27.4 8 Sur 17 Sudeste 0 1011.4 -0.4 66
2017-09-08 12:00:00 26.6 7 Sur 18 Sudeste 0 1012 0.4 68
2017-09-08 11:00:00 26.2 7 Sudoeste 15 Oeste 0 1012.1 0.6 70
2017-09-08 10:00:00 25.1 8 Oeste 13 Noroeste 0 1011.8 0.4 76
2017-09-08 09:00:00 23.1 8 Oeste 13 Noroeste 0 1011.6 0.1 86
2017-09-08 08:00:00 21.9 7 Noroeste 11 Noroeste 0 1011.5 -0.4 90
2017-09-08 07:00:00 22.2 7 Oeste 11 Noroeste 0 1011.4 -0.7 90
2017-09-08 06:00:00 21.7 8 Noroeste 11 Noroeste 0 1011.5 -1 91
2017-09-08 05:00:00 21.9 7 Noroeste 9 Oeste 0 1011.9 -1 90
2017-09-08 04:00:00 21.9 5 Noroeste -- -- 0 1012.1 -0.7 90
2017-09-08 03:00:00 22.6 5 Oeste -- -- -- 1012.5 -0.3 88
2017-09-08 02:00:00 22.7 0 Calma 4 Norte 0 1012.9 0.1 87
2017-09-08 01:00:00 23.9 2 Oeste 5 Oeste 0 1012.8 0.2 83
2017-09-08 00:00:00 24.1 3 Oeste 9 Oeste 0 1012.8 0.9 81
2017-09-07 23:00:00 23.9 -- -- -- -- 0 1012.8 1 83
2017-09-07 22:00:00 24.5 6 Sudoeste 8 Sudoeste 0 1012.6 1.1 80
2017-09-07 21:00:00 24.9 4 Sudeste 13 Este 0 1011.9 0.4 78
2017-09-07 20:00:00 25.8 9 Sudeste 15 Este 0 1011.8 -0.6 74
2017-09-07 19:00:00 26.7 8 Sudeste 28 Este 0 1011.5 -1.2 66
2017-09-07 18:00:00 27.3 15 Este 24 Este 0 1011.5 -1.7 67
2017-09-07 17:00:00 27.8 12 Este 24 Este 0 1012.4 -1.1 65
2017-09-07 16:00:00 28.1 15 Este 26 Norte 0 1012.7 -1.2 61
2017-09-07 15:00:00 28.3 18 Este 28 Norte 0 1013.2 -1 60
2017-09-07 14:00:00 28.1 18 Este 26 Este 0 1013.5 -0.3 62
2017-09-07 13:00:00 27.5 17 Este 24 Este 0 1013.9 0.2 65
2017-09-07 12:00:00 26.9 12 Este 26 Este 0 1014.2 0.2 70
2017-09-07 11:00:00 26.1 15 Este 22 Este 0 1013.8 0.2 72
2017-09-07 10:00:00 25.6 11 Este 17 Este 0 1013.7 -0.1 74
2017-09-07 09:00:00 24.5 4 Nordeste 13 Norte 0 1014 0.5 84
2017-09-07 08:00:00 23.2 9 Nordeste 13 Nordeste 0.5 1013.6 0.2 89
2017-09-07 07:00:00 23.5 10 Noroeste 21 Norte 0 1013.8 -0.2 84
2017-09-07 06:00:00 23.5 7 Norte 11 Nordeste 0 1013.5 -1 84
2017-09-07 05:00:00 23.1 6 Norte 9 Nordeste 0 1013.4 -1.9 85
2017-09-07 04:00:00 23.5 3 Norte 11 Este 0 1014 -1.3 85
2017-09-07 03:00:00 23.7 5 Nordeste -- -- -- 1014.5 -1 84
2017-09-07 02:00:00 24.8 7 Nordeste 15 Este 0 1015.3 -0.2 81
2017-09-07 01:00:00 25.2 12 Este 15 Este 0 1015.3 -0.2 79
2017-09-07 00:00:00 25.2 9 Este 15 Este 0 1015.5 0.4 79
2017-09-06 23:00:00 25.2 10 Nordeste 15 Nordeste 0 1015.5 0.6 80
2017-09-06 22:00:00 25.2 10 Este 18 Este 0 1015.5 0.5 80
2017-09-06 21:00:00 25.2 12 Este 18 Este 0 1015.1 -0.1 80
2017-09-06 20:00:00 25.6 14 Este 24 Este 0 1014.9 -0.7 79
2017-09-06 19:00:00 26.6 17 Este 26 Nordeste 0 1015 -1.1 71
2017-09-06 18:00:00 27 17 Este 30 Este 0 1015.2 -1.5 69
2017-09-06 17:00:00 27.9 20 Este 28 Norte 0 1015.6 -1.4 65
2017-09-06 16:00:00 28.3 19 Este 30 Este 0 1016.1 -1.3 58
2017-09-06 15:00:00 28.3 19 Este 30 Este 0 1016.7 -1 58
2017-09-06 14:00:00 28.2 17 Este 24 Nordeste 0 1017 -0.7 56
2017-09-06 13:00:00 28.2 13 Este 18 Sudeste 0 1017.4 -0.1 55
2017-09-06 12:00:00 28.4 10 Este 18 Este 0 1017.7 0.4 56
2017-09-06 11:00:00 26.4 9 Este 15 Este 0 1017.7 0.7 66
2017-09-06 10:00:00 25.3 5 Nordeste 17 Norte 0 1017.5 0.9 68
2017-09-06 09:00:00 23.2 5 Norte 13 Norte 0 1017.3 1 67
2017-09-06 08:00:00 20.6 0 Calma 9 Nordeste 0 1017 0.5 80
2017-09-06 07:00:00 20.2 0 Calma 8 Oeste 0 1016.6 -0.4 80
2017-09-06 06:00:00 20.5 6 Oeste 11 Oeste 0 1016.3 -1.2 88
2017-09-06 05:00:00 20.7 4 Oeste 8 Noroeste 0 1016.5 -1.3 90
2017-09-06 04:00:00 21.2 8 Noroeste 9 Noroeste 0 1017 -1 91
2017-09-06 03:00:00 21.7 4 Noroeste -- -- -- 1017.5 -0.5 91
2017-09-06 02:00:00 22.2 4 Noroeste 9 Noroeste 0 1017.8 -0.2 89
2017-09-06 01:00:00 22.8 3 Noroeste -- -- 0 1018 0.3 88
2017-09-06 00:00:00 23.6 8 Oeste 9 Oeste 0 1018 0.7 84
2017-09-05 23:00:00 24.2 5 Oeste 9 Norte 0 1018 1.3 81
2017-09-05 22:00:00 24.7 4 Norte 9 Nordeste 0 1017.7 1.1 79
2017-09-05 21:00:00 25.1 6 Nordeste 15 Este 0 1017.3 0.6 79
2017-09-05 20:00:00 25.8 9 Este 21 Norte 0 1016.7 -0.2 77
2017-09-05 19:00:00 27.4 14 Este 22 Este 0 1016.6 -0.7 68
2017-09-05 18:00:00 28.6 13 Este 26 Este 0 1016.7 -0.9 57
2017-09-05 17:00:00 29.4 15 Este 26 Sudeste 0 1016.9 -1.1 47
2017-09-05 16:00:00 30.2 15 Este 26 Este 0 1017.3 -1.1 35
2017-09-05 15:00:00 31 12 Este 22 Este 0 1017.6 -1 25
2017-09-05 14:00:00 30.1 12 Este 21 Este 0 1018 -0.4 38
2017-09-05 13:00:00 29.6 10 Este 18 Este 0 1018.4 0.3 46
2017-09-05 12:00:00 28.5 12 Este 21 Este 0 1018.6 0.8 56
2017-09-05 11:00:00 27.6 9 Nordeste 21 Nordeste 0 1018.4 1 64
2017-09-05 10:00:00 26.2 8 Norte 17 Norte 0 1018.1 1.3 72
2017-09-05 09:00:00 23.8 8 Noroeste 15 Oeste 0 1017.8 1.5 78
2017-09-05 08:00:00 21.6 10 Noroeste 13 Noroeste 0 1017.4 1.5 89
2017-09-05 07:00:00 21.7 0 Calma 9 Oeste 0 1016.8 1 88
2017-09-05 06:00:00 22.1 7 Noroeste 13 Noroeste 0 1016.3 0.4 88
2017-09-05 05:00:00 23.2 10 Norte 15 Norte 0 1015.9 -0.1 85
2017-09-05 04:00:00 23.4 10 Norte 13 Norte 0 1015.8 0 87
2017-09-05 03:00:00 23.9 9 Norte -- -- -- 1015.9 0.3 85
2017-09-05 02:00:00 24.2 9 Nordeste 13 Nordeste 0 1016 0.7 85
2017-09-05 01:00:00 24.7 9 Nordeste 18 Este 0 1015.8 1.3 84
2017-09-05 00:00:00 25 12 Nordeste 21 Este 0 1015.6 2 82
2017-09-04 23:00:00 25.3 14 Este 22 Este 0 1015.3 2.8 81
2017-09-04 22:00:00 25.3 17 Este 24 Norte 0 1014.5 2.8 82
2017-09-04 21:00:00 25.5 14 Este 24 Este 0 1013.6 2.6 82
2017-09-04 20:00:00 25.9 18 Este 28 Este 0 1012.5 2 78
2017-09-04 19:00:00 26.8 19 Este 32 Este 0 1011.7 1.3 75
2017-09-04 18:00:00 27.3 22 Este 32 Este 0 1011 0.6 74
2017-09-04 17:00:00 28 19 Este 30 Norte 0 1010.5 0.1 70
2017-09-04 16:00:00 28.4 18 Este 28 Este 0 1010.4 0.1 64
2017-09-04 15:00:00 28.6 17 Este 30 Este 0 1010.4 -0.2 62
2017-09-04 14:00:00 27.9 16 Este 24 Este 0 1010.4 0.3 66
2017-09-04 13:00:00 27.9 10 Este 22 Este 0 1010.3 0.8 64
2017-09-04 12:00:00 27.6 12 Este 21 Este 0 1010.6 1.5 66
2017-09-04 11:00:00 27.1 4 Este 11 Este 0 1010.1 1.3 63
2017-09-04 10:00:00 25.4 4 Nordeste 13 Norte 0 1009.5 1.3 70
2017-09-04 09:00:00 22.5 5 Nordeste 11 Norte 0 1009.1 1 81
2017-09-04 08:00:00 20.1 7 Oeste -- -- 0 1008.8 0.6 92
2017-09-04 07:00:00 20.4 9 Sudoeste 11 Oeste 0 1008.2 -0.5 91
2017-09-04 06:00:00 20.9 7 Oeste 9 Oeste 0 1008.1 -1 90
2017-09-04 05:00:00 21.3 3 Oeste 8 Noroeste 0 1008.2 -1.1 91
2017-09-04 04:00:00 21.5 4 Noroeste 8 Noroeste 0 1008.7 -0.9 91
2017-09-04 03:00:00 21.8 0 Calma -- -- -- 1009.1 -0.9 89
2017-09-04 02:00:00 22.2 0 Calma 9 Norte 0 1009.3 -0.9 88
2017-09-04 01:00:00 23.6 7 Norte 11 Norte 0 1009.6 -0.5 83
2017-09-04 00:00:00 24.4 4 Norte 9 Norte 0 1010 0.3 79
2017-09-03 23:00:00 24.5 3 Nordeste 11 Nordeste 0 1010.2 0.7 80
2017-09-03 22:00:00 25 4 Este 5 Este 0 1010.1 0.5 77
2017-09-03 21:00:00 25 4 Sur 17 Sur 0 1009.7 0.2 78
2017-09-03 20:00:00 25.6 11 Sur 18 Sur 0 1009.5 -0.4 75
2017-09-03 19:00:00 26.2 10 Sur 24 Sur 0 1009.6 -1 71
2017-09-03 18:00:00 27.4 14 Sur 26 Sur 0 1009.5 -1.9 66
2017-09-03 17:00:00 27.2 15 Sur 26 Sur 0 1009.9 -2 67
2017-09-03 16:00:00 27.4 14 Sur 24 Sudeste 0 1010.6 -2.4 66
2017-09-03 15:00:00 27.9 12 Sur 24 Sur 0 1011.4 -2.3 63
2017-09-03 14:00:00 28.5 12 Sur 22 Oeste 0 1011.9 -2.2 61
2017-09-03 13:00:00 27.2 15 Oeste 30 Oeste 0 1013 -1.1 61
2017-09-03 12:00:00 26.1 14 Sudoeste 26 Sudoeste 0 1013.7 -0.5 64
2017-09-03 11:00:00 25.2 13 Sudoeste 22 Oeste 0 1014.1 -0.2 67
2017-09-03 10:00:00 24.1 8 Oeste 15 Sudoeste 0 1014.1 -0.1 73
2017-09-03 09:00:00 22.3 3 Sudoeste 9 Sudoeste 0 1014.2 0 82
2017-09-03 08:00:00 21.7 7 Sudoeste 9 Sur 0 1014.3 -0.3 82
2017-09-03 07:00:00 21.7 7 Sudoeste 9 Sudoeste 0 1014.2 -1 82
2017-09-03 06:00:00 21.1 4 Oeste 13 Noroeste 0 1014.2 -1.4 84
2017-09-03 05:00:00 21.2 6 Noroeste 11 Noroeste 0 1014.6 -1.5 83
2017-09-03 04:00:00 20.7 6 Noroeste 11 Noroeste 0 1015.2 -1.4 83
2017-09-03 03:00:00 20.6 6 Noroeste 9 Oeste 0 1015.6 -1.3 84
2017-09-03 02:00:00 21.1 4 Noroeste 9 Norte 0 1016.1 -0.8 80
2017-09-03 01:00:00 21.6 6 Noroeste 13 Noroeste 0 1016.6 -0.2 77
2017-09-03 00:00:00 22.2 7 Noroeste 11 Noroeste 0 1016.9 0.6 74
2017-09-02 23:00:00 23.1 0 Calma -- -- 0 1016.9 1 71
2017-09-02 22:00:00 23.2 0 Calma 5 Sur 0 1016.8 1 69
2017-09-02 21:00:00 23.3 4 Sur 13 Sudeste 0 1016.3 0.5 68
2017-09-02 20:00:00 24.7 8 Sudeste 18 Este 0 1015.9 -0.1 61
2017-09-02 19:00:00 25.6 12 Este 22 Sudeste 0 1015.8 -0.7 56
2017-09-02 18:00:00 26.2 15 Este 24 Este 0 1015.8 -1 54
2017-09-02 17:00:00 26.5 14 Este 28 Sudeste 0 1016 -1.2 54
2017-09-02 16:00:00 27 16 Este 28 Este 0 1016.5 -1.1 51
2017-09-02 15:00:00 26.9 19 Este 30 Norte 0 1016.8 -1.2 50
2017-09-02 14:00:00 27.2 18 Este 28 Este 0 1017.2 -0.5 48
2017-09-02 13:00:00 26.8 19 Este 32 Este 0 1017.6 0.4 46
2017-09-02 12:00:00 26.9 16 Este 30 Norte 0 1018 1.2 43
2017-09-02 11:00:00 26.1 15 Nordeste 33 Este 0 1017.7 1.7 50
2017-09-02 10:00:00 24.6 17 Nordeste 28 Este 0 1017.2 1.5 59
2017-09-02 09:00:00 23.9 6 Norte 15 Norte 0 1016.8 1.5 66
2017-09-02 08:00:00 22.2 10 Norte 13 Nordeste 0 1016 0.7 78
2017-09-02 07:00:00 23.2 9 Norte 22 Este 0 1015.7 0.5 73
2017-09-02 06:00:00 23.1 8 Norte 17 Norte 0 1015.3 0.3 75
2017-09-02 05:00:00 24 10 Norte 22 Nordeste 0 1015.3 0.1 74
2017-09-02 04:00:00 23.8 14 Nordeste 22 Nordeste 0 1015.2 0.2 79
2017-09-02 03:00:00 23.9 12 Nordeste 21 Nordeste 0 1015 0.1 81
2017-09-02 02:00:00 24.6 16 Nordeste 24 Nordeste 0 1015.2 0.5 78
2017-09-02 01:00:00 24.7 18 Nordeste 28 Este 0 1015 0.7 78
2017-09-02 00:00:00 24.9 18 Este 28 Este 0 1014.9 1.3 76
2017-09-01 23:00:00 24.7 18 Este 26 Este 0.1 1014.7 1.7 78
2017-09-01 22:00:00 25.1 19 Este 28 Este 0 1014.3 1.7 75
2017-09-01 21:00:00 25.1 18 Este 30 Este 0 1013.6 1.2 75
2017-09-01 20:00:00 25.2 25 Nordeste 37 Este 0 1013 0.6 79
2017-09-01 19:00:00 26.1 27 Este 41 Este 0 1012.6 -0.3 73
2017-09-01 18:00:00 27.2 29 Este 42 Este 0 1012.4 -0.9 67
2017-09-01 17:00:00 27.4 32 Este 45 Este 0 1012.4 -1.4 67
2017-09-01 16:00:00 27.7 33 Este 45 Este 0 1012.9 -1 66
2017-09-01 15:00:00 28 34 Este 48 Este 0 1013.3 -0.6 63
2017-09-01 14:00:00 27.1 30 Este 45 Este 0 1013.8 0 64
2017-09-01 13:00:00 28 31 Este 46 Este 0 1013.9 0.2 61
2017-09-01 12:00:00 28.1 32 Este 45 Este 0 1013.9 0.7 69
2017-09-01 11:00:00 27.2 12 Este 21 Este 0 1013.8 1 66
2017-09-01 10:00:00 26.3 6 Este 11 Este 0 1013.7 1.4 60
2017-09-01 09:00:00 23.7 5 Oeste 13 Oeste 0 1013.2 0.9 70
2017-09-01 08:00:00 21.5 6 Noroeste 17 Noroeste 0 1012.8 0.2 80
2017-09-01 07:00:00 20.7 8 Noroeste 15 Noroeste 0 1012.3 -0.4 85
2017-09-01 06:00:00 20.8 9 Noroeste 11 Noroeste 0 1012.3 -0.8 86
2017-09-01 05:00:00 21.9 8 Noroeste 13 Noroeste 0 1012.6 -0.9 84
2017-09-01 04:00:00 21.9 9 Noroeste 13 Noroeste 0 1012.7 -0.8 86
2017-09-01 03:00:00 22.1 8 Norte 11 Norte 0 1013.1 -0.7 86
2017-09-01 02:00:00 23.4 7 Norte 21 Nordeste 0 1013.5 -0.3 79
2017-09-01 01:00:00 24.2 15 Nordeste 39 Este 0 1013.5 0.3 78
2017-09-01 00:00:00 24.6 30 Este 42 Este 0 1013.8 1.4 78
2017-08-31 23:00:00 24.7 28 Este 39 Este 0 1013.8 1.9 78
2017-08-31 22:00:00 24.7 20 Este 30 Este 0 1013.2 1.5 79
2017-08-31 21:00:00 25.2 16 Este 24 Este 0 1012.4 0.6 77
2017-08-31 20:00:00 26 17 Este 28 Este 0 1011.9 0.2 72
2017-08-31 19:00:00 26.7 21 Este 30 Este 0 1011.7 -0.3 73
2017-08-31 18:00:00 27.9 21 Este 32 Este 0 1011.8 -0.7 65
2017-08-31 17:00:00 27.8 20 Este 30 Este 0 1011.7 -1 52
2017-08-31 16:00:00 28.2 20 Este 30 Este 0 1012 -1.2 50
2017-08-31 15:00:00 28.1 20 Este 30 Este 0 1012.5 -0.3 51
2017-08-31 14:00:00 27.9 22 Este 32 Este 0 1012.7 -0.1 54
2017-08-31 13:00:00 28.1 18 Nordeste 28 Este 0 1013.2 0.9 52
2017-08-31 12:00:00 29.6 12 Nordeste 24 Nordeste -- 1012.8 1.3 41
2017-08-31 11:00:00 24.3 10 Oeste 17 Sudoeste 0 1012.8 1.2 69
2017-08-31 10:00:00 24.5 6 Sur 17 Oeste 0 1012.3 1.2 62
2017-08-31 09:00:00 23 8 Oeste 15 Oeste 0 1011.5 0.3 70
2017-08-31 08:00:00 21.8 2 Noroeste 11 Norte 0 1011.6 0.5 76
2017-08-31 07:00:00 21.3 5 Sudoeste 11 Oeste 0 1011.1 0.5 82
2017-08-31 06:00:00 21 8 Sudoeste 11 Sudoeste 0 1011.2 0 86
2017-08-31 05:00:00 22.2 8 Sudoeste 18 Noroeste 0 1011.1 -0.3 77
2017-08-31 04:00:00 21.6 14 Noroeste 18 Noroeste 0 1010.6 -1.1 79
2017-08-31 03:00:00 21.5 9 Oeste 13 Noroeste 0 1011.2 -0.7 80
2017-08-31 02:00:00 22.2 9 Noroeste 15 Noroeste 0 1011.4 -0.8 80
2017-08-31 01:00:00 22.2 6 Noroeste 15 Norte 0 1011.7 0.4 81
2017-08-31 00:00:00 22.9 8 Norte 17 Norte 0 1011.9 0.9 76
2017-08-30 23:00:00 23.4 0 Calma -- -- 0 1012.2 1.3 71
2017-08-30 22:00:00 23.1 0 Calma 8 Noroeste 0 1011.3 0.6 74
2017-08-30 21:00:00 23.1 2 Oeste 18 Sudoeste 0 1011 0.5 74
2017-08-30 20:00:00 23.9 10 Sur 17 Sudoeste 0 1010.9 0 73
2017-08-30 19:00:00 23.8 10 Sur 21 Sudoeste 0 1010.7 -1.5 74
2017-08-30 18:00:00 25.5 12 Sudoeste 21 Sudoeste 0 1010.5 -2 58
2017-08-30 17:00:00 25.6 9 Sudoeste 22 Sudoeste 0 1010.9 -2.5 64
2017-08-30 16:00:00 23.5 11 Sur 17 Sudoeste 0 1012.2 -1.8 74
2017-08-30 15:00:00 22.5 10 Oeste 24 Oeste 0 1012.5 -1.5 81
2017-08-30 14:00:00 22.3 18 Sudoeste 33 Sudoeste 0.1 1013.4 -0.6 85
2017-08-30 13:00:00 21.9 9 Sur 13 Sur 0.5 1014 1.3 85
2017-08-30 12:00:00 21.7 7 Sudoeste 18 Oeste 0.2 1014 1.3 83
2017-08-30 11:00:00 21.2 14 Oeste 18 Oeste 0.4 1014 1.4 82
2017-08-30 10:00:00 20.2 7 Noroeste 15 Norte 0.6 1012.7 0 90
2017-08-30 09:00:00 19.9 8 Noroeste 17 Norte 0.6 1012.7 1 91
2017-08-30 08:00:00 19.6 8 Norte 13 Nordeste 0.5 1012.6 -0.6 92
2017-08-30 07:00:00 19.2 3 Nordeste 18 Norte 0 1012.7 -0.2 90
2017-08-30 06:00:00 19.1 15 Norte 24 Norte 2.8 1011.7 -1 93
2017-08-30 05:00:00 20 9 Nordeste 18 Nordeste 2.9 1013.2 -0.5 93
2017-08-30 04:00:00 20.7 12 Este 33 Nordeste 1 1012.9 -1.9 89
2017-08-30 03:00:00 19.9 20 Este 28 Este 1 1012.7 -2.5 94
2017-08-30 02:00:00 19.1 12 Nordeste 24 Nordeste 2.1 1013.7 0.3 94
2017-08-30 01:00:00 19.6 10 Norte 18 Nordeste 2.8 1014.8 4.2 94
2017-08-30 00:00:00 19.9 12 Este 50 Oeste 10.6 1015.2 4.4 93
2017-08-29 23:00:00 21.9 20 Oeste 32 Sudoeste 7.3 1013.4 1.5 93
2017-08-29 22:00:00 22.7 14 Noroeste 26 Nordeste 1 1010.6 -0.3 90
2017-08-29 21:00:00 22.7 10 Norte 35 Norte 1.3 1010.8 0.3 88
2017-08-29 20:00:00 23.1 7 Nordeste 22 Norte 0.1 1011.9 1.4 81
2017-08-29 19:00:00 23.3 10 Noroeste 22 Norte 1.8 1010.9 0.2 79
2017-08-29 18:00:00 25.1 12 Noroeste 24 Noroeste 0.1 1010.5 -0.9 68
2017-08-29 17:00:00 25.6 14 Noroeste 30 Noroeste 0 1010.5 -0.7 66
2017-08-29 16:00:00 27.1 11 Oeste 32 Norte 0 1010.7 -0.9 63
2017-08-29 15:00:00 26.2 7 Sudoeste 15 Sudoeste 0 1011.4 0 70
2017-08-29 14:00:00 24.2 5 Oeste 22 Noroeste 2.1 1011.2 -0.2 81
2017-08-29 13:00:00 24.6 4 Este 17 Nordeste 1.6 1011.6 0.6 81
2017-08-29 12:00:00 24.8 8 Nordeste 21 Nordeste 0.2 1011.4 1 76
2017-08-29 11:00:00 24 5 Noroeste 11 Sur 0.7 1011.4 2.1 89
2017-08-29 10:00:00 23.6 3 Sur 21 Este 1.6 1011 1.7 87
2017-08-29 09:00:00 24.5 4 Sur 8 Sur 0 1010.4 1.3 76
2017-08-29 08:00:00 22.9 5 Nordeste 9 Nordeste 0 1009.3 -0.6 86
2017-08-29 07:00:00 24.6 3 Norte 17 Norte 0 1009.3 -1 83
2017-08-29 06:00:00 23.7 10 Norte 17 Nordeste 0 1009.1 -0.9 83
2017-08-29 05:00:00 23.8 4 Norte 9 Norte 0 1009.9 0.2 84
2017-08-29 04:00:00 23 2 Sudoeste 9 Noroeste 0 1010.3 0.3 91
2017-08-29 03:00:00 22.7 0 Calma 8 Nordeste 0 1010 -0.3 90
2017-08-29 02:00:00 23.1 3 Norte 11 Nordeste 0 1009.7 -0.9 89
2017-08-29 01:00:00 23.6 4 Norte 11 Nordeste 0 1010 -0.5 88
2017-08-29 00:00:00 24.5 5 Nordeste 9 Nordeste 0 1010.3 0.1 87
2017-08-28 23:00:00 25.5 0 Calma 11 Norte 0 1010.6 0.3 85
2017-08-28 22:00:00 25.7 5 Norte 9 Nordeste 0 1010.5 0.1 85
2017-08-28 21:00:00 26.2 3 Sudoeste 9 Sudoeste 0 1010.2 0.1 84
2017-08-28 20:00:00 26.5 5 Sur 18 Sudeste 0 1010.3 -0.8 82
2017-08-28 19:00:00 27.1 13 Sudeste 22 Sudeste 0 1010.4 -1.4 79
2017-08-28 18:00:00 28.4 12 Este 18 Nordeste 0 1010.1 -2.1 68
2017-08-28 17:00:00 28.6 11 Este 18 Este 0 1011.1 -0.9 65
2017-08-28 16:00:00 28.1 9 Sur 24 Sudoeste 0 1011.8 -0.7 70
2017-08-28 15:00:00 27.7 9 Sudeste 18 Este 0 1012.2 -1 74
2017-08-28 14:00:00 28 9 Sudeste 18 Este 0 1012 0.1 70
2017-08-28 13:00:00 27.8 7 Sudeste 21 Sur 0 1012.5 2 70
2017-08-28 12:00:00 28.1 12 Sur 22 Sudeste 0 1013.2 3.2 65
2017-08-28 11:00:00 27.8 11 Este 24 Este 0 1011.9 1.8 65
2017-08-28 10:00:00 27 19 Este 26 Este 0 1010.5 -0.1 77
2017-08-28 09:00:00 25.5 8 Nordeste 17 Nordeste 0 1010 -0.8 78
2017-08-28 08:00:00 24.5 5 Este 13 Oeste 0 1010.1 -1 89
2017-08-28 07:00:00 24.4 10 Sudoeste 13 Oeste 0 1010.6 -0.8 90
2017-08-28 06:00:00 24.8 8 Oeste 13 Oeste 0 1010.8 -0.6 89
2017-08-28 05:00:00 25.2 6 Oeste 9 Oeste 0 1011.1 -1.3 89
2017-08-28 04:00:00 25.9 5 Este 15 Este 0 1011.4 -0.8 87
2017-08-28 03:00:00 26 12 Este 22 Este 0 1011.4 -0.1 84
2017-08-28 02:00:00 26.5 13 Este 22 Norte 0 1012.4 1.4 83
2017-08-28 01:00:00 26.3 6 Sur 13 Sudoeste 0 1012.2 0.7 87
2017-08-28 00:00:00 26.4 4 Sur 17 Sudeste 0 1011.5 0.1 86
2017-08-27 23:00:00 26.4 6 Este 9 Sudeste 0 1011 -0.2 86
2017-08-27 22:00:00 26.5 5 Sudeste 11 Este 0 1011.5 0.7 85
2017-08-27 21:00:00 27.1 5 Este 17 Este 0 1011.4 0.7 83
2017-08-27 20:00:00 27.6 12 Este 21 Este 0 1011.2 0.2 78
2017-08-27 19:00:00 28.5 13 Este 22 Este 0 1010.8 -0.4 68
2017-08-27 18:00:00 29.8 13 Este 18 Sudeste 0 1010.7 -1 62
2017-08-27 17:00:00 30.5 14 Este 21 Este 0 1011 -1.2 58
2017-08-27 16:00:00 29.6 16 Este 26 Este 0 1011.2 -1.3 58
2017-08-27 15:00:00 29.7 17 Este 28 Norte 0 1011.7 -0.5 63
2017-08-27 14:00:00 29.6 18 Este 26 Este 0 1012.2 0.2 59
2017-08-27 13:00:00 28.6 14 Sudeste 22 Este 0 1012.5 0.9 62
2017-08-27 12:00:00 28.1 9 Este 21 Nordeste 0 1012.2 0.5 63
2017-08-27 11:00:00 28.3 16 Nordeste 30 Este 0 1012 0.9 67
2017-08-27 10:00:00 27.6 18 Nordeste 30 Este 0 1011.6 1.2 75
2017-08-27 09:00:00 24.9 4 Oeste 8 Oeste 0 1011.7 1.6 80
2017-08-27 08:00:00 23.1 6 Sudeste 13 Sur 0 1011.1 0.1 88
2017-08-27 07:00:00 23.2 3 Sudoeste 22 Noroeste 0 1010.4 -0.8 86
2017-08-27 06:00:00 24.1 15 Noroeste 22 Norte 0 1010.1 -1.3 85
2017-08-27 05:00:00 24 14 Oeste 18 Oeste 0 1011 -2.1 91
2017-08-27 04:00:00 24.1 12 Oeste 13 Oeste 0 1011.2 -2.8 89
2017-08-27 03:00:00 24.9 13 Este 18 Este 0 1011.4 -0.9 88
2017-08-27 02:00:00 25.3 3 Sur 15 Oeste 0 1013.1 1.1 85
2017-08-27 01:00:00 26.2 6 Oeste 26 Este 0 1014 2.5 84
2017-08-27 00:00:00 26 18 Este 33 Nordeste 0 1012.3 1 86
2017-08-26 23:00:00 25.9 25 Este 33 Este 0 1012 1.3 86
2017-08-26 22:00:00 26.1 15 Este 24 Este 0 1011.5 1 84
2017-08-26 21:00:00 26.5 7 Nordeste 21 Este 0 1011.3 0.5 82
2017-08-26 20:00:00 26.8 12 Nordeste 26 Este 0 1010.7 -0.6 80
2017-08-26 19:00:00 27.9 17 Este 28 Este 0 1010.5 -1.3 72
2017-08-26 18:00:00 29.1 19 Este 32 Este 0 1010.8 -1.3 66
2017-08-26 17:00:00 29.4 22 Este 32 Este 0 1011.3 -1 65
2017-08-26 16:00:00 29.3 19 Este 32 Este 0 1011.8 -0.7 66
2017-08-26 15:00:00 29.4 19 Este 33 Norte 0 1012.1 -0.4 67
2017-08-26 14:00:00 29.2 17 Este 28 Este 0 1012.3 -0.5 67
2017-08-26 13:00:00 29.2 17 Este 28 Este 0 1012.5 0 66
2017-08-26 12:00:00 28.6 18 Este 30 Este 0 1012.5 0.5 65
2017-08-26 11:00:00 27.4 14 Este 26 Este 0 1012.8 1.4 71
2017-08-26 10:00:00 26.2 13 Este 18 Este 0 1012.5 1.1 80
2017-08-26 09:00:00 25.1 5 Sudeste 8 Sudeste 0 1012 0.3 83
2017-08-26 08:00:00 24.2 0 Calma 9 Nordeste 0 1011.4 -0.8 86
2017-08-26 07:00:00 24.1 0 Calma 8 Oeste 0 1011.4 -1.1 86
2017-08-26 06:00:00 24.4 0 Calma 9 Oeste 0 1011.7 -1.1 85
2017-08-26 05:00:00 24.4 4 Oeste 8 Oeste 0 1012.2 -0.8 86
2017-08-26 04:00:00 24.7 2 Oeste 13 Nordeste 0 1012.5 -1.1 85
2017-08-26 03:00:00 25.4 11 Este 18 Norte 0 1012.8 -0.7 84
2017-08-26 02:00:00 25.5 14 Este 22 Este 0 1013 -0.2 83
2017-08-26 01:00:00 25.6 12 Este 24 Este 0 1013.6 1.4 84
2017-08-26 00:00:00 25.8 12 Este 17 Este 0 1013.5 0.9 85